avr
25

GP DE VALKENSWAARD : LIVE TIMING ET RÉSULTATS

Comme durant chaque GP, PRE111IERMOTOCROSS fera son Maximum pour Vous donner tous les résultats et infos le plus rapidement possible..

HORAIRES (attention toutefois seules les qualifications seront disponibles en live timing « gratuit », toutefois si les temps au tour sont indisponibles, nous mettrons en ligne sur ce sujet comme d’habitude dès que les qualifications/manches seront terminées tous les résultats aussi bien le dimanche que le lundi bien entendu.. Ce live timing est également visible sur votre téléphone mobile via l’Application dédiée de PRE111IERMOTOCROSS.. Bon week-end..!)

Dimanche :

VMX Free Practice 7:20
EMX2 Free + Qualifying Time Practice Group A 7:55
EMX2 Free + Qualifying Time Practice Group B 8:35
MX2 Free Practice 9:30
MX1 Free Practice 10:15
VMX Time Practice 11:00
EMX2 Qualifying Race Group A 12:10
EMX2 Qualifying Race Group B 12:45
MX2 Pre-Qualifying Practice 13:15
MX1-Pre Qualifying Practice 14:00
VMX Race 1 15:10
MX2 Qualifying Race 16:10
MX1 Qualifying Race 17:00
EMX2 Last Chance Qualifying Practice 17:45
VMX Race 2 18:40
EMX2 B-Final 19:20

Lundi :

EMX2 Warm up 8:30
MX2 Warm up 9:00
MX1 Warm up 9:30
EMX2 Race 1 10:20
MX2 Grand Prix Race 1 12:10
MX1 Grand Prix Race 1 13:10
EMX2 Race 2 14:10
MX2 Grand Prix Race 2 15:03
MX1 Grand Prix race 2 16:03

Xavier Boog a chuté et a cassé son radiateur lors de la manche de qualification mais a priori ne serait pas touché physiquement selon Yves Demaria que nous venons de joindre au téléphone.. « Il était bien parti mais au premier virage il s’est fait pousser vers l’extérieur par Clément Desalle et dans une grosse série de sauts qui suivait, gêné par la poussière, il a pris une mauvaise ornière et il est passé par devant.. Il était un peu abattu tout à l’heure mais souriant ce soir en partant du terrain donc il n’y a pas de souci particulier.. Il va falloir cravacher demain mais de toute façon que tu partes devant ou derrière, c’est un circuit où il faut cravacher.. « .. Xavier partira donc en 38 Ème position demain sur la grille..

MX1 – Qualifying Race – Classification
Pos Nr Rider Nat. Fed. Bike Time laps Diff. First Diff. Prev. Bestlaptime in lap Speed

1 2 Nagl, Maximilian GER DMSB KTM 24:54.711 12 0:00.000 0:00.000 1:54.094 4 47.329
2 777 Bobryshev, Evgeny RUS MFR Honda 25:00.344 12 0:05.633 0:05.633 1:53.563 7 47.551
3 999 Goncalves, Rui POR FMP Honda 25:01.018 12 0:06.307 0:00.674 1:53.986 6 47.374
4 222 Cairoli, Antonio ITA FMI KTM 25:01.918 12 0:07.207 0:00.900 1:53.483 7 47.584
5 19 Philippaerts, David ITA FMI Yamaha 25:07.700 12 0:12.989 0:05.782 1:53.571 2 47.547
6 25 Desalle, Clement BEL FMB Suzuki 25:14.354 12 0:19.643 0:06.654 1:53.679 8 47.502
7 9 de Dycker, Ken BEL FMB Honda 25:16.269 12 0:21.558 0:01.915 1:53.922 8 47.401
8 14 de Reuver, Marc NED KNMV Yamaha 25:41.406 12 0:46.695 0:25.137 1:54.734 2 47.065
9 11 Ramon, Steve BEL FMB Suzuki 25:44.659 12 0:49.948 0:03.253 1:56.136 2 46.497
10 24 Simpson, Shaun GBR ACU Honda 25:48.402 12 0:53.691 0:03.743 1:57.261 2 46.051
11 10 Boissiere, Anthony FRA FFM Yamaha 25:49.288 12 0:54.577 0:00.886 1:57.231 5 46.063
12 7 Barragan, Jonathan ESP RFME Kawasaki 25:52.131 12 0:57.420 0:02.843 1:57.487 5 45.963
13 183 Frossard, Steven FRA FFM Yamaha 25:56.679 12 1:01.968 0:04.548 1:52.126 1 48.16
14 6 Leok, Tanel EST EMF TM 25:57.804 12 1:03.093 0:01.125 1:58.321 6 45.639
15 50 Barr, Martin GBR MCUI KTM 26:02.936 12 1:08.225 0:05.132 1:56.810 2 46.229
16 101 Townley, Benjamin NZL MNZ Kawasaki 26:06.281 12 1:11.570 0:03.345 1:58.556 5 45.548
17 37 Krestinov, Gert EST EMF Kawasaki 26:07.309 12 1:12.598 0:01.028 1:58.646 6 45.514
18 287 Schiffer, Marcus GER DMSB Suzuki 26:13.042 12 1:18.331 0:05.733 1:58.130 2 45.712
19 387 Martens, Yentel BEL MUL KTM 26:21.418 12 1:26.707 0:08.376 1:59.386 5 45.231
20 67 Tiainen, Santtu FIN SML Kawasaki 26:25.256 12 1:30.545 0:03.838 1:59.711 5 45.109
21 21 Dougan, Jason GBR ACU Yamaha 26:31.645 12 1:36.934 0:06.389 1:59.732 2 45.101
22 39 Guarneri, Davide ITA FMI Kawasaki 26:31.827 12 1:37.116 0:00.182 1:58.846 6 45.437
23 215 Lynggaard, Kasper DEN DMU Kawasaki 26:32.997 12 1:38.286 0:01.170 1:59.487 2 45.193
24 52 Walkner, Matthias AUT OeAMTC KTM 26:34.726 12 1:40.015 0:01.729 2:00.019 5 44.993
25 115 Campano Jimenez, Carlos ESP RFME Yamaha 26:34.750 12 1:40.039 0:00.024 2:00.311 5 44.884
26 91 Thuresson, Filip SWE SVEMO KTM 26:48.662 12 1:53.951 0:13.912 2:00.355 2 44.867
27 22 Strijbos, Kevin BEL FMB Suzuki 26:49.226 12 1:54.515 0:00.564 2:00.052 6 44.981
28 78 Verhoeven, Bas NED KNMV Honda 26:50.000 12 1:55.289 0:00.774 2:01.234 4 44.542
29 555 Irwin, Graeme GBR MCUI KTM 26:54.785 12 2:00.074 0:04.785 2:00.201 3 44.925
30 717 Sandberg, Rickard SWE SVEMO Kawasaki 26:56.726 12 2:02.015 0:01.941 2:01.501 3 44.444
31 49 Schmidinger, Günter AUT OeAMTC Honda 26:57.390 12 2:02.679 0:00.664 2:02.482 4 44.088
32 95 Augusts, Justs LAT LAMSF Honda 26:59.166 12 2:04.455 0:01.776 2:02.111 4 44.222
33 86 van Vijfeijken, Rob NED KNMV Kawasaki 25:05.070 11 1 lap 1 lap 2:01.804 1 44.334
34 41 Smith, Alfie GBR ACU Aprilia 25:12.227 11 1 lap 0:07.157 2:02.005 3 44.26
35 74 Steinbergs, Ivo LAT LAMSF Kawasaki 25:17.262 11 1 lap 0:05.035 2:02.920 3 43.931
36 61 Brakke, Herjan NED KNMV Yamaha 25:30.373 11 1 lap 0:13.111 1:59.582 6 45.157
37 45 Leonce, Loic FRA FFM Aprilia 14:38.720 6 6 laps 5 laps 2:01.529 3 44.434

MX2 – Qualifying Race – Classification
Pos Nr Rider Nat. Fed. Bike Time laps Diff. First Diff. Prev. Bestlaptime in lap Speed

1 84 Herlings, Jeffrey NED KNMV KTM 24:19.560 12 0:00.000 0:00.000 1:49.243 1 49.431
2 94 Roczen, Ken GER DMSB KTM 24:35.707 12 0:16.147 0:16.147 1:51.288 2 48.523
3 99 Anstie, Max GBR AMA Kawasaki 24:40.358 12 0:20.798 0:04.651 1:52.194 4 48.131
4 21 Paulin, Gautier FRA MCM Yamaha 24:54.465 12 0:34.905 0:14.107 1:53.216 1 47.696
5 100 Searle, Tommy GBR ACU Kawasaki 25:00.188 12 0:40.628 0:05.723 1:52.970 3 47.8
6 7 Tonus, Arnaud SUI FMS Yamaha 25:01.129 12 0:41.569 0:00.941 1:53.680 1 47.502
7 151 Kullas, Harri FIN SML Yamaha 25:11.308 12 0:51.748 0:10.179 1:54.997 5 46.958
8 34 Roelants, Joel BEL FMB KTM 25:22.431 12 1:02.871 0:11.123 1:55.801 2 46.632
9 17 Butron Oliva, Antonio Jose ESP RFME KTM 25:37.430 12 1:17.870 0:14.999 1:56.240 2 46.456
10 338 Osborne, Zachary USA ACU Yamaha 25:41.973 12 1:22.413 0:04.543 1:52.991 1 47.791
11 131 Aubin, Nicolas FRA FFM KTM 25:42.754 12 1:23.194 0:00.781 1:55.808 1 46.629
12 249 Larsen, Nikolaj DEN DMU KTM 25:45.790 12 1:26.230 0:03.036 1:56.785 1 46.239
13 911 Tixier, Jordi FRA FFM KTM 25:53.369 12 1:33.809 0:07.579 1:57.832 4 45.828
14 590 Triest, Nick BEL FMB KTM 26:02.978 12 1:43.418 0:09.609 1:58.528 2 45.559
15 76 Rauchenecker, Pascal AUT OeAMTC KTM 26:07.342 12 1:47.782 0:04.364 1:57.888 6 45.806
16 173 Guillod, Valentin SUI FMS KTM 26:08.557 12 1:48.997 0:01.215 1:58.230 4 45.674
17 79 Oldekamp, Lars GER DMSB KTM 26:10.483 12 1:50.923 0:01.926 1:58.517 4 45.563
18 388 Söderberg, Ludvig FIN SML Kawasaki 26:15.965 12 1:56.405 0:05.482 1:59.891 1 45.041
19 152 Petrov, Petar BUL BMF Yamaha 26:18.194 12 1:58.634 0:02.229 1:57.418 3 45.99
20 430 Charlier, Christophe FRA FFM Yamaha 24:21.686 11 1 lap 1 lap 1:55.470 1 46.765
21 77 Lupino, Alessandro ITA FMI Husqvarna 24:23.072 11 1 lap 0:01.386 1:58.516 3 45.563
22 25 Coldenhoff, Glenn NED KNMV Yamaha 24:24.914 11 1 lap 0:01.842 1:58.720 4 45.485
23 55 Kras, Mike NED KNMV Suzuki 24:27.241 11 1 lap 0:02.327 1:59.009 1 45.375
24 195 Justs, Roberts LAT LAMSF Honda 24:28.088 11 1 lap 0:00.847 2:00.005 3 44.998
25 128 Monticelli, Ivo ITA FMI Honda 24:28.605 11 1 lap 0:00.517 1:58.851 3 45.435
26 114 Booker, Jordan GBR ACU KTM 24:42.846 11 1 lap 0:14.241 2:01.620 5 44.401
27 102 Smitka, Petr CZE ACCR TM 24:45.215 11 1 lap 0:02.369 2:01.498 4 44.445
28 941 Meurs, Jeffrey NED KNMV KTM 24:49.265 11 1 lap 0:04.050 1:59.896 1 45.039
29 62 Klemen, Gercar SLO AMZS Yamaha 24:54.282 11 1 lap 0:05.017 1:59.020 1 45.371
30 824 Kouwenberg, Nick NED KNMV KTM 25:03.136 11 1 lap 0:08.854 1:59.579 1 45.158
31 777 Zanoni, Swian BRA CBM Honda 25:06.529 11 1 lap 0:03.393 2:03.302 2 43.795
32 611 Cociu, Mihail MDA FRM Honda 25:25.842 11 1 lap 0:19.313 2:04.690 3 43.307
33 550 Mitchell, Sean ZIM ZMSF Honda 25:29.668 11 1 lap 0:03.826 2:03.517 4 43.719
34 33 Lieber, Julien BEL MUL KTM 26:21.123 11 1 lap 0:51.455 1:57.941 2 45.786
35 117 Söderström, Tom SWE SVEMO Suzuki 21:03.976 9 3 laps 2 laps 1:58.771 2 45.466
36 339 Thacker, Michael USA LAMSF Kawasaki 17:26.747 6 6 laps 3 laps 2:07.964 2 42.199
37 262 Del Segato, Giacomo ITA FMI KTM 11:01.219 4 8 laps 2 laps 2:01.853 2 44.316

EMX2 – B-Final – Classification
Pos Nr Rider Nat. Fed. Bike Time laps Diff. First Diff. Prev. Bestlaptime in lap Speed

1 46 Jönsson, Jesper SWE SVEMO Suzuki 20:13.721 9 0:00.000 0:00.000 2:00.478 2 44.821
2 89 Bogers, Brian NED KNMV KTM 20:15.494 9 0:01.773 0:01.773 2:00.321 3 44.88
3 17 Bertuzzo, Pierfilippo ITA FMI Yamaha 20:16.512 9 0:02.791 0:01.018 2:00.548 1 44.795
4 97 van den Bogaert, Mike NED KNMV Kawasaki 20:45.813 9 0:32.092 0:29.301 2:00.480 2 44.821
5 94 Reuther, Lars GER DMSB KTM 20:48.314 9 0:34.593 0:02.501 2:02.314 4 44.149
6 243 Gajser, Tim SLO AMZS KTM 20:51.203 9 0:37.482 0:02.889 2:02.407 2 44.115
7 411 Kahro, Erki EST EMF Honda 20:59.550 9 0:45.829 0:08.347 2:03.632 2 43.678
8 615 Takatalo, Eeli FIN SML Honda 21:04.629 9 0:50.908 0:05.079 2:04.495 6 43.375
9 99 Ciucci, Dawid ITA FMI Yamaha 21:06.770 9 0:53.049 0:02.141 2:00.319 1 44.881
10 100 Wauters, Arnaud BEL FMB KTM 21:10.233 9 0:56.512 0:03.463 2:03.901 2 43.583
11 38 Van De Sande, Axel BEL FMB KTM 21:14.209 9 1:00.488 0:03.976 2:04.142 5 43.499
12 58 Ortuno, Antonio ESP RFME Yamaha 21:21.161 9 1:07.440 0:06.952 2:05.618 1 42.987
13 36 Krekels, Buick NED MUL Kawasaki 21:27.122 9 1:13.401 0:05.961 2:06.834 8 42.575
14 618 Terraneo, Stefano ITA FMI KTM 21:29.695 9 1:15.974 0:02.573 2:06.759 4 42.601
15 91 Sanchez Osuna, Alonso ESP RFME Honda 21:39.081 9 1:25.360 0:09.386 2:07.287 5 42.424
16 308 Golovkin, Viacheslav RUS MFR KTM 21:48.805 9 1:35.084 0:09.724 2:09.758 3 41.616
17 921 Valentin Lasheras, Ander ESP RFME Yamaha 21:51.055 9 1:37.334 0:02.250 2:08.739 4 41.945
18 572 Jarva, Kim Oiva NOR NMF Honda 21:52.235 9 1:38.514 0:01.180 2:07.526 1 42.344
19 61 Brevers, Ludovic BEL FMB Kawasaki 21:57.060 9 1:43.339 0:04.825 2:08.498 1 42.024
20 50 Oliva Galera, Christian ESP RFME Yamaha 22:06.758 9 1:53.037 0:09.698 2:08.500 4 42.023
21 41 Verleysen, Dylan BEL FMB Suzuki 22:08.235 9 1:54.514 0:01.477 2:07.608 1 42.317
22 79 Granlien, Kenneth NOR NMF Yamaha 22:17.913 9 2:04.192 0:09.678 2:09.236 4 41.784
23 200 Nogueira, Henrique POR FMP Kawasaki 21:10.060 8 1 lap 1 lap 2:08.700 1 41.958
24 144 Folkers, Rick NED KNMV Honda 21:19.278 8 1 lap 0:09.218 2:07.205 3 42.451
25 18 De Bortoli, Davide ITA FMI Suzuki 21:43.197 8 1 lap 0:23.919 2:08.651 2 41.974
26 121 Valente, Alessandro ITA FMI Suzuki 15:16.896 6 3 laps 2 laps 2:06.593 1 42.656
27 19 Muratori, Francesco ITA FMI Suzuki 14:32.768 5 4 laps 1 lap 2:07.987 1 42.192
28 373 Peixe, Sandro POR FMP Kawasaki 16:44.246 5 4 laps 2:11.478 2:08.887 1 41.897
29 22 Gultvedt, Andreas NOR NMF KTM 10:26.226 3 6 laps 2 laps 2:08.822 2 41.918
30 70 Van Iperen, Tom NED KNMV Yamaha 4:12.348 1 8 laps 2 laps 2:05.756 1 42.94
31 799 Gaudree, Alexis FRA FFM Honda 2:56.100 0 9 laps 1 lap 0:00.000 0 0

VMX – Race 1 – Classification
Pos Nr Rider Nat. Fed. Bike Time laps Diff. First Diff. Prev. Bestlaptime in lap Speed

1 1 Nilsson, Mats SWE SVEMO Yamaha 24:50.483 11 0:00.000 0:00.000 2:01.936 11 44.286
2 178 Hofstede, Klaas NED KNMV Honda 24:56.433 11 0:05.950 0:05.950 2:03.540 1 43.711
3 20 Bal, Pascal BEL FMB Yamaha 25:52.451 11 1:01.968 0:56.018 2:06.525 1 42.679
4 32 Lheriteau, Christophe FRA FFM Kawasaki 26:22.212 11 1:31.729 0:29.761 2:07.524 1 42.345
5 13 Kahro, Valdur EST EMF Honda 26:58.670 11 2:08.187 0:36.458 2:12.069 5 40.888
6 60 Davids, Erik NED KNMV Yamaha 27:06.012 11 2:15.529 0:07.342 2:10.996 2 41.223
7 304 Woldendorp, Paul NED KNMV Honda 24:59.838 10 1 lap 1 lap 2:14.375 3 40.186
8 53 Lombardo, Vincenzo ITA FMI Honda 25:08.998 10 1 lap 0:09.160 2:13.005 7 40.6
9 46 House, Terry GBR ACU Yamaha 25:14.515 10 1 lap 0:05.517 2:15.146 7 39.957
10 70 Camps, Alfredo ESP RFME Honda 25:18.953 10 1 lap 0:04.438 2:16.558 3 39.544
11 10 Dijkstra, Koos NED KNMV Honda 25:27.368 10 1 lap 0:08.415 2:15.659 5 39.806
12 377 De Blaey, Marco NED KNMV Suzuki 25:32.638 10 1 lap 0:05.270 2:15.577 4 39.83
13 42 Jakobsson, Roger SWE SVEMO Yamaha 25:37.694 10 1 lap 0:05.056 2:17.730 2 39.207
14 88 Hellman, Kim FIN SML Honda 25:48.530 10 1 lap 0:10.836 2:17.813 3 39.184
15 50 Postema, Jan NED KNMV Yamaha 25:58.323 10 1 lap 0:09.793 2:17.452 1 39.286
16 28 Lewis, Phil GBR ACU KTM 26:23.108 10 1 lap 0:24.785 2:20.734 10 38.37
17 30 Bergsma, Peter NED KNMV Suzuki 26:28.016 10 1 lap 0:04.908 2:16.097 5 39.678
18 242 Gajser, Bogomir SLO AMZS Suzuki 26:30.065 10 1 lap 0:02.049 2:17.399 1 39.302
19 12 Bruggen, Hendrik NED KNMV Yamaha 26:33.968 10 1 lap 0:03.903 2:20.995 2 38.299
20 38 Van Der Vlist, Jan NED LAMSF unknown 26:51.927 10 1 lap 0:17.959 2:23.277 6 37.689..

VMX – Race 2 – Classification
Pos Nr Rider Nat. Fed. Bike Time laps Diff. First Diff. Prev. Bestlaptime in lap Speed

1 1 Nilsson, Mats SWE SVEMO Yamaha 25:13.171 11 0:00.000 0:00.000 2:04.515 2 43.368
2 20 Bal, Pascal BEL FMB Yamaha 26:23.079 11 1:09.908 1:09.908 2:08.001 7 42.187
3 32 Lheriteau, Christophe FRA FFM Kawasaki 26:44.257 11 1:31.086 0:21.178 2:08.975 7 41.869
4 178 Hofstede, Klaas NED KNMV Honda 27:44.333 11 2:31.162 1:00.076 2:04.282 5 43.45
5 13 Kahro, Valdur EST EMF Honda 25:27.557 10 1 lap 1 lap 2:16.507 3 39.558
6 10 Dijkstra, Koos NED KNMV Honda 25:46.965 10 1 lap 0:19.408 2:18.927 6 38.869
7 30 Bergsma, Peter NED KNMV Suzuki 25:58.276 10 1 lap 0:11.311 2:18.578 3 38.967
8 42 Jakobsson, Roger SWE SVEMO Yamaha 26:07.233 10 1 lap 0:08.957 2:20.226 3 38.509
9 88 Hellman, Kim FIN SML Honda 26:08.504 10 1 lap 0:01.271 2:20.283 5 38.494
10 304 Woldendorp, Paul NED KNMV Honda 26:12.910 10 1 lap 0:04.406 2:17.192 6 39.361
11 60 Davids, Erik NED KNMV Yamaha 26:15.805 10 1 lap 0:02.895 2:17.479 2 39.279
12 70 Camps, Alfredo ESP RFME Honda 26:30.111 10 1 lap 0:14.306 2:22.411 4 37.918
13 50 Postema, Jan NED KNMV Yamaha 26:34.121 10 1 lap 0:04.010 2:20.661 3 38.39
14 53 Lombardo, Vincenzo ITA FMI Honda 26:37.522 10 1 lap 0:03.401 2:23.200 1 37.709
15 242 Gajser, Bogomir SLO AMZS Suzuki 26:51.929 10 1 lap 0:14.407 2:24.090 1 37.477
16 377 De Blaey, Marco NED KNMV Suzuki 26:57.669 10 1 lap 0:05.740 2:24.633 6 37.336
17 12 Bruggen, Hendrik NED KNMV Yamaha 27:13.657 10 1 lap 0:15.988 2:26.866 7 36.768
18 28 Lewis, Phil GBR ACU KTM 27:19.083 10 1 lap 0:05.426 2:26.605 3 36.834
19 401 Looman, Eddie NED KNMV Honda 27:28.691 10 1 lap 0:09.608 2:26.717 3 36.806
20 58 Polo, Marco ITA FMI Yamaha 25:32.479 9 2 laps 1 lap 2:29.101 2 36.217..

MX – Overall Classification
Pos Nr Rider Nat. Fed. Bike Race 1 Race 2 Tota
l
1 1 Nilsson, Mats SWE SVEMO Yamaha 25 25 50
2 20 Bal, Pascal BEL FMB Yamaha 20 22 42
3 178 Hofstede, Klaas NED KNMV Honda 22 18 40
4 32 Lheriteau, Christophe FRA FFM Kawasaki 18 20 38
5 13 Kahro, Valdur EST EMF Honda 16 16 32
6 10 Dijkstra, Koos NED KNMV Honda 10 15 25
7 304 Woldendorp, Paul NED KNMV Honda 14 11 25
8 60 Davids, Erik NED KNMV Yamaha 15 10 25
9 42 Jakobsson, Roger SWE SVEMO Yamaha 8 13 21
10 70 Camps, Alfredo ESP RFME Honda 11 9 20
11 53 Lombardo, Vincenzo ITA FMI Honda 13 7 20
12 88 Hellman, Kim FIN SML Honda 7 12 19
13 30 Bergsma, Peter NED KNMV Suzuki 4 14 18
14 50 Postema, Jan NED KNMV Yamaha 6 8 14
15 377 De Blaey, Marco NED KNMV Suzuki 9 5 14
16 46 House, Terry GBR ACU Yamaha 12 0 12
17 242 Gajser, Bogomir SLO AMZS Suzuki 3 6 9
18 28 Lewis, Phil GBR ACU KTM 5 3 8
19 12 Bruggen, Hendrik NED KNMV Yamaha 2 4 6
20 401 Looman, Eddie NED KNMV Honda 0 2 2..

VMX – Championship Classification
Pos Nr Rider Nat. Total NED USA LAT BEL GBR EUR

1 1 Nilsson, Mats SWE 50 25-25 - - - - - - - - - -
2 20 Bal, Pascal BEL 42 20-22 - - - - - - - - - -
3 178 Hofstede, K. NED 40 22-18 - - - - - - - - - -
4 32 Lheriteau, C. FRA 38 18-20 - - - - - - - - - -
5 13 Kahro, Valdur EST 32 16-16 - - - - - - - - - -
6 10 Dijkstra, Koos NED 25 10-15 - - - - - - - - - -
7 60 Davids, Erik NED 25 15-10 - - - - - - - - - -
8 304 Woldendorp, P. NED 25 14-11 - - - - - - - - - -
9 42 Jakobsson, R. SWE 21 8-13 - - - - - - - - - -
10 53 Lombardo, V. ITA 20 13-7 - - - - - - - - - -
11 70 Camps, Alfredo ESP 20 11-9 - - - - - - - - - -
12 88 Hellman, Kim FIN 19 7-12 - - - - - - - - - -
13 30 Bergsma, Peter NED 18 4-14 - - - - - - - - - -
14 377 De Blaey, M. NED 14 9-5 - - - - - - - - - -
15 50 Postema, Jan NED 14 6-8 - - - - - - - - - -
16 46 House, Terry GBR 12 12-0 - - - - - - - - - -
17 242 Gajser, B. SLO 9 3-6 - - - - - - - - - -
18 28 Lewis, Phil GBR 8 5-3 - - - - - - - - - -
19 12 Bruggen, H. NED 6 2-4 - - - - - - - - - -
20 401 Looman, Eddie NED 2 0-2 - - - - - - - - - -..

DIMANCHE

MX2 – Warm-up – Classification
Pos Nr Rider Nat. Fed. Bike Bestlaptime in lap Diff. First Diff. Prev. Tot. Laps Speed

1 84 Herlings, Jeffrey NED KNMV KTM 1:49.416 1 0:00.000 0:00.000 8 49.353
2 100 Searle, Tommy GBR ACU Kawasaki 1:52.494 4 0:03.078 0:03.078 7 48.003
3 7 Tonus, Arnaud SUI FMS Yamaha 1:53.270 3 0:03.854 0:00.776 8 47.674
4 99 Anstie, Max GBR AMA Kawasaki 1:53.809 7 0:04.393 0:00.539 9 47.448
5 338 Osborne, Zachary USA ACU Yamaha 1:53.933 3 0:04.517 0:00.124 7 47.396
6 94 Roczen, Ken GER DMSB KTM 1:54.778 6 0:05.362 0:00.845 8 47.047
7 25 Coldenhoff, Glenn NED KNMV Yamaha 1:55.181 6 0:05.765 0:00.403 7 46.883
8 152 Petrov, Petar BUL BMF Yamaha 1:55.191 6 0:05.775 0:00.010 8 46.879
9 430 Charlier, Christophe FRA FFM Yamaha 1:55.258 6 0:05.842 0:00.067 7 46.851
10 249 Larsen, Nikolaj DEN DMU KTM 1:55.530 4 0:06.114 0:00.272 7 46.741
11 34 Roelants, Joel BEL FMB KTM 1:55.786 6 0:06.370 0:00.256 9 46.638
12 911 Tixier, Jordi FRA FFM KTM 1:55.809 4 0:06.393 0:00.023 7 46.629
13 151 Kullas, Harri FIN SML Yamaha 1:55.866 7 0:06.450 0:00.057 9 46.606
14 76 Rauchenecker, Pascal AUT OeAMTC KTM 1:56.268 8 0:06.852 0:00.402 8 46.444
15 77 Lupino, Alessandro ITA FMI Husqvarna 1:56.325 2 0:06.909 0:00.057 5 46.422
16 131 Aubin, Nicolas FRA FFM KTM 1:56.385 5 0:06.969 0:00.060 8 46.398
17 55 Kras, Mike NED KNMV Suzuki 1:56.580 3 0:07.164 0:00.195 7 46.32
18 17 Butron Oliva, Antonio Jose ESP RFME KTM 1:56.922 4 0:07.506 0:00.342 5 46.185
19 590 Triest, Nick BEL FMB KTM 1:57.060 4 0:07.644 0:00.138 5 46.13
20 388 Söderberg, Ludvig FIN SML Kawasaki 1:57.807 3 0:08.391 0:00.747 8 45.838
21 128 Monticelli, Ivo ITA FMI Honda 1:58.015 6 0:08.599 0:00.208 9 45.757
22 33 Lieber, Julien BEL MUL KTM 1:58.432 7 0:09.016 0:00.417 7 45.596
23 62 Klemen, Gercar SLO AMZS Yamaha 1:58.653 2 0:09.237 0:00.221 7 45.511
24 117 Söderström, Tom SWE SVEMO Suzuki 1:59.376 4 0:09.960 0:00.723 4 45.235
25 195 Justs, Roberts LAT LAMSF Honda 2:00.126 8 0:10.710 0:00.750 8 44.953
26 824 Kouwenberg, Nick NED KNMV KTM 2:00.242 3 0:10.826 0:00.116 8 44.909
27 262 Del Segato, Giacomo ITA FMI KTM 2:00.246 2 0:10.830 0:00.004 6 44.908
28 173 Guillod, Valentin SUI FMS KTM 2:00.282 5 0:10.866 0:00.036 6 44.894
29 941 Meurs, Jeffrey NED KNMV KTM 2:00.391 4 0:10.975 0:00.109 6 44.854
30 102 Smitka, Petr CZE ACCR TM 2:00.825 7 0:11.409 0:00.434 8 44.693
31 114 Booker, Jordan GBR ACU KTM 2:01.509 8 0:12.093 0:00.684 8 44.441
32 777 Zanoni, Swian BRA CBM Honda 2:02.106 7 0:12.690 0:00.597 7 44.224
33 550 Mitchell, Sean ZIM ZMSF Honda 2:02.594 5 0:13.178 0:00.488 6 44.048
34 611 Cociu, Mihail MDA FRM Honda 2:03.083 6 0:13.667 0:00.489 8 43.873
35 79 Oldekamp, Lars GER DMSB KTM 2:07.066 1 0:17.650 0:03.983 7 42.498
36 21 Paulin, Gautier FRA MCM Yamaha 2:07.119 1 0:17.703 0:00.053 4 42.48
37 339 Thacker, Michael USA LAMSF Kawasaki 2:10.048 5 0:20.632 0:02.929 5 41.523

MX1 – Warm-up – Classification
Pos Nr Rider Nat. Fed. Bike Bestlaptime in lap Diff. First Diff. Prev. Tot. Laps Speed

1 999 Goncalves, Rui POR FMP Honda 1:52.098 4 0:00.000 0:00.000 7 48.172
2 14 de Reuver, Marc NED KNMV Yamaha 1:52.454 6 0:00.356 0:00.356 6 48.02
3 6 Leok, Tanel EST EMF TM 1:52.489 5 0:00.391 0:00.035 7 48.005
4 777 Bobryshev, Evgeny RUS MFR Honda 1:52.555 3 0:00.457 0:00.066 6 47.977
5 25 Desalle, Clement BEL FMB Suzuki 1:53.938 3 0:01.840 0:01.383 7 47.394
6 9 de Dycker, Ken BEL FMB Honda 1:54.147 6 0:02.049 0:00.209 7 47.307
7 19 Philippaerts, David ITA FMI Yamaha 1:54.150 5 0:02.052 0:00.003 8 47.306
8 7 Barragan, Jonathan ESP RFME Kawasaki 1:54.465 8 0:02.367 0:00.315 8 47.176
9 121 Boog, Xavier FRA FFM Kawasaki 1:54.623 9 0:02.525 0:00.158 9 47.111
10 50 Barr, Martin GBR MCUI KTM 1:54.739 5 0:02.641 0:00.116 8 47.063
11 11 Ramon, Steve BEL FMB Suzuki 1:55.399 6 0:03.301 0:00.660 7 46.794
12 21 Dougan, Jason GBR ACU Yamaha 1:55.611 3 0:03.513 0:00.212 6 46.708
13 37 Krestinov, Gert EST EMF Kawasaki 1:55.689 4 0:03.591 0:00.078 5 46.677
14 10 Boissiere, Anthony FRA FFM Yamaha 1:55.973 5 0:03.875 0:00.284 6 46.563
15 26 Delince, Jeremy BEL FMB KTM 1:56.130 3 0:04.032 0:00.157 6 46.5
16 22 Strijbos, Kevin BEL FMB Suzuki 1:56.573 2 0:04.475 0:00.443 8 46.323
17 387 Martens, Yentel BEL MUL KTM 1:56.624 4 0:04.526 0:00.051 6 46.303
18 45 Leonce, Loic FRA FFM Aprilia 1:57.059 6 0:04.961 0:00.435 7 46.131
19 287 Schiffer, Marcus GER DMSB Suzuki 1:57.843 4 0:05.745 0:00.784 8 45.824
20 95 Augusts, Justs LAT LAMSF Honda 1:57.892 3 0:05.794 0:00.049 7 45.805
21 24 Simpson, Shaun GBR ACU Honda 1:57.975 7 0:05.877 0:00.083 8 45.772
22 67 Tiainen, Santtu FIN SML Kawasaki 1:58.035 5 0:05.937 0:00.060 8 45.749
23 101 Townley, Benjamin NZL MNZ Kawasaki 1:58.433 3 0:06.335 0:00.398 6 45.595
24 74 Steinbergs, Ivo LAT LAMSF Kawasaki 1:59.020 2 0:06.922 0:00.587 7 45.371
25 52 Walkner, Matthias AUT OeAMTC KTM 1:59.036 4 0:06.938 0:00.016 6 45.364
26 222 Cairoli, Antonio ITA FMI KTM 1:59.225 3 0:07.127 0:00.189 6 45.293
27 61 Brakke, Herjan NED KNMV Yamaha 1:59.312 5 0:07.214 0:00.087 6 45.259
28 78 Verhoeven, Bas NED KNMV Honda 1:59.329 2 0:07.231 0:00.017 5 45.253
29 115 Campano Jimenez, Carlos ESP RFME Yamaha 1:59.908 7 0:07.810 0:00.579 7 45.035
30 717 Sandberg, Rickard SWE SVEMO Kawasaki 2:00.034 6 0:07.936 0:00.126 7 44.987
31 86 van Vijfeijken, Rob NED KNMV Kawasaki 2:00.173 2 0:08.075 0:00.139 7 44.935
32 555 Irwin, Graeme GBR MCUI KTM 2:00.203 5 0:08.105 0:00.030 7 44.924
33 2 Nagl, Maximilian GER DMSB KTM 2:00.755 3 0:08.657 0:00.552 6 44.719
34 91 Thuresson, Filip SWE SVEMO KTM 2:01.280 2 0:09.182 0:00.525 6 44.525
35 49 Schmidinger, Günter AUT OeAMTC Honda 2:01.374 5 0:09.276 0:00.094 6 44.491
36 215 Lynggaard, Kasper DEN DMU Kawasaki 2:01.917 3 0:09.819 0:00.543 6 44.292
37 41 Smith, Alfie GBR ACU Aprilia 2:03.768 3 0:11.670 0:01.851 6 43.63
38 39 Guarneri, Davide ITA FMI Kawasaki 2:09.107 2 0:17.009 0:05.339 4 41.826
39 183 Frossard, Steven FRA FFM Yamaha 2:37.773 1 0:45.675 0:28.666 2 34.226

EMX2 – Race 1 – Classification
Pos Nr Rider Nat. Fed. Bike Time laps Diff. First Diff. Prev. Bestlaptime in lap Speed

1 81 Van Wezel, Michael NED KNMV KTM 30:21.289 14 0:00.000 0:00.000 2:00.204 4 44.924
2 300 Tonkov, Aleksandr RUS FMI Yamaha 30:22.796 14 0:01.507 0:01.507 2:00.591 1 44.779
3 51 Getteman, Jens BEL FMB Yamaha 30:53.255 14 0:31.966 0:30.459 2:00.908 4 44.662
4 24 Leijtens, Eric NED KNMV Kawasaki 30:59.407 14 0:38.118 0:06.152 2:00.602 3 44.775
5 192 Mercandino, Michael ITA FMI KTM 31:01.532 14 0:40.243 0:02.125 2:01.144 2 44.575
6 461 Febvre, Romain FRA FFM KTM 31:09.009 14 0:47.720 0:07.477 2:01.955 2 44.279
7 12 Heibye, Even NOR NMF KTM 31:13.169 14 0:51.880 0:04.160 2:02.718 3 44.003
8 225 Lefrancois, Charles FRA FFM Honda 31:16.148 14 0:54.859 0:02.979 2:02.540 1 44.067
9 11 Bastemeijer, Donny NED KNMV Honda 31:17.060 14 0:55.771 0:00.912 2:00.923 4 44.657
10 151 Desprey, Maxime FRA FFM Yamaha 31:18.440 14 0:57.151 0:01.380 2:00.614 1 44.771
11 262 Lonka, Lukasz POL PZM Honda 31:20.090 14 0:58.801 0:01.650 2:01.146 3 44.574
12 707 Kappel, Robin FRA FFM KTM 31:27.601 14 1:06.312 0:07.511 2:02.484 2 44.087
13 214 Zeni, Samuel ITA FMI Suzuki 31:28.144 14 1:06.855 0:00.543 2:03.391 8 43.763
14 140 Van Herpen, Sander NED KNMV Honda 31:32.084 14 1:10.795 0:03.940 2:02.841 2 43.959
15 21 Fors, Kevin BEL FMB KTM 31:32.325 14 1:11.036 0:00.241 2:03.191 5 43.834
16 149 Ullrich, Dennis GER DMSB Honda 31:32.978 14 1:11.689 0:00.653 2:03.588 5 43.694
17 66 Tombs, Lewis GBR ACU Honda 31:34.539 14 1:13.250 0:01.561 2:03.420 4 43.753
18 89 Bogers, Brian NED KNMV KTM 31:35.575 14 1:14.286 0:01.036 2:01.546 3 44.428
19 64 Bengtsson, Filip SWE SVEMO KTM 31:37.373 14 1:16.084 0:01.798 2:02.492 3 44.085
20 221 Rätsep, Priit EST EMF Honda 31:37.880 14 1:16.591 0:00.507 2:02.665 4 44.022
21 250 Fura, Richard FRA FFM Yamaha 31:46.513 14 1:25.224 0:08.633 2:02.312 4 44.149
22 32 Tureluren, Arne BEL FMB KTM 31:50.093 14 1:28.804 0:03.580 2:03.725 7 43.645
23 49 Battig, Alessandro ITA FMI KTM 31:51.531 14 1:30.242 0:01.438 2:04.359 3 43.423
24 37 Hjortmarker, Eddie SWE SVEMO Honda 31:55.230 14 1:33.941 0:03.699 2:05.079 7 43.173
25 122 Ferrandis, Dylan FRA FFM Kawasaki 32:01.906 14 1:40.617 0:06.676 1:59.431 3 45.214
26 356 Reville, Anthony GBR ACU Honda 32:06.933 14 1:45.644 0:05.027 2:04.450 2 43.391
27 171 Soper, Marcus-Lee GBR ACU Honda 32:31.257 14 2:09.968 0:24.324 2:02.855 3 43.954
28 46 Jönsson, Jesper SWE SVEMO Suzuki 30:31.830 13 1 lap 1 lap 2:02.855 7 43.954
29 107 Vandergugten, Olivier BEL FMB KTM 30:39.247 13 1 lap 0:07.417 2:07.945 2 42.206
30 336 Olsen, Stefan Kjer DEN DMU Yamaha 24:43.025 11 3 laps 2 laps 2:01.429 2 44.47
31 141 Cervellin, Andrea ITA FMI Husqvarna 23:42.686 10 4 laps 1 lap 2:01.145 3 44.575
32 103 Vandueren, Kenny BEL FMB KTM 19:46.482 8 6 laps 2 laps 2:03.653 3 43.671
33 20 Irt, Jernej SLO AMZS Suzuki 20:05.632 8 6 laps 0:19.150 2:05.893 3 42.894
34 951 Aubin, Arnaud FRA FFM KTM 21:13.430 7 7 laps 1 lap 2:08.014 3 42.183
35 14 Poppe, Jens BEL FMB Yamaha 15:43.714 6 8 laps 1 lap 2:04.756 2 43.284
36 211 Jaulin, Sulivan FRA FFM Kawasaki 18:16.020 6 8 laps 2:32.306 2:02.660 5 44.024
37 29 Keet, Alan GBR ACU Suzuki 13:06.584 5 9 laps 1 lap 2:06.592 2 42.657
38 193 Brackman, Wietse BEL FMB KTM 11:42.686 4 10 laps 1 lap 2:06.011 1 42.853
39 228 Jorgensen, Rasmus DEN DMU Suzuki 12:55.937 4 10 laps 1:13.251 2:05.998 1 42.858
40 172 Van Doninck, Brent BEL FMB KTM 7:38.241 2 12 laps 2 laps 2:04.792 1 43.272

Holeshot de Jeffrey Herlings, petite chute (glissade de l’arrière..) de Ken Roczen à 19 mn de la fin de la manche sinon RAS..

MX2 – Grand Prix Race 1 – Classification
Pos Nr Rider Nat. Fed. Bike Time laps Diff. First Diff. Prev. Bestlaptime in lap Speed

1 84 Herlings, Jeffrey NED KNMV KTM 39:55.351 20 0:00.000 0:00.000 1:49.805 1 49.178
2 94 Roczen, Ken GER DMSB KTM 40:32.803 20 0:37.452 0:37.452 1:50.162 1 49.019
3 100 Searle, Tommy GBR ACU Kawasaki 40:40.382 20 0:45.031 0:07.579 1:53.265 3 47.676
4 7 Tonus, Arnaud SUI FMS Yamaha 40:42.503 20 0:47.152 0:02.121 1:54.274 2 47.255
5 21 Paulin, Gautier FRA MCM Yamaha 40:57.332 20 1:01.981 0:14.829 1:53.628 1 47.523

6 338 Osborne, Zachary USA ACU Yamaha 41:15.090 20 1:19.739 0:17.758 1:54.662 3 47.095
7 151 Kullas, Harri FIN SML Yamaha 41:17.604 20 1:22.253 0:02.514 1:55.823 1 46.623
8 34 Roelants, Joel BEL FMB KTM 41:19.548 20 1:24.197 0:01.944 1:55.414 6 46.788
9 131 Aubin, Nicolas FRA FFM KTM 41:25.190 20 1:29.839 0:05.642 1:51.978 1 48.224
10 99 Anstie, Max GBR AMA Kawasaki 39:59.060 19 1 lap 1 lap 1:54.019 2 47.361
11 249 Larsen, Nikolaj DEN DMU KTM 40:10.021 19 1 lap 0:10.961 1:56.066 1 46.525
12 25 Coldenhoff, Glenn NED KNMV Yamaha 40:15.801 19 1 lap 0:05.780 1:58.068 3 45.736
13 17 Butron Oliva, Antonio Jose ESP RFME KTM 40:17.286 19 1 lap 0:01.485 1:57.931 1 45.789
14 430 Charlier, Christophe FRA FFM Yamaha 40:37.997 19 1 lap 0:20.711 1:57.843 2 45.824
15 55 Kras, Mike NED KNMV Suzuki 40:43.579 19 1 lap 0:05.582 1:56.530 1 46.34
16 79 Oldekamp, Lars GER DMSB KTM 40:52.929 19 1 lap 0:09.350 1:58.375 3 45.618
17 76 Rauchenecker, Pascal AUT OeAMTC KTM 40:59.452 19 1 lap 0:06.523 1:57.894 3 45.804
18 911 Tixier, Jordi FRA FFM KTM 41:01.290 19 1 lap 0:01.838 1:57.935 1 45.788
19 388 Söderberg, Ludvig FIN SML Kawasaki 41:10.760 19 1 lap 0:09.470 1:59.156 3 45.319
20 173 Guillod, Valentin SUI FMS KTM 41:20.020 19 1 lap 0:09.260 1:58.933 3 45.404
21 114 Booker, Jordan GBR ACU KTM 41:58.567 19 1 lap 0:38.547 2:02.055 1 44.242
22 590 Triest, Nick BEL FMB KTM 39:56.922 18 2 laps 1 lap 1:58.578 3 45.54
23 117 Söderström, Tom SWE SVEMO Suzuki 40:00.736 18 2 laps 0:03.814 2:01.262 2 44.532
24 62 Klemen, Gercar SLO AMZS Yamaha 40:05.981 18 2 laps 0:05.245 2:02.129 3 44.216
25 941 Meurs, Jeffrey NED KNMV KTM 40:14.574 18 2 laps 0:08.593 2:02.530 5 44.071
26 195 Justs, Roberts LAT LAMSF Honda 40:23.289 18 2 laps 0:08.715 2:01.075 1 44.6
27 777 Zanoni, Swian BRA CBM Honda 40:24.791 18 2 laps 0:01.502 2:03.332 5 43.784
28 824 Kouwenberg, Nick NED KNMV KTM 40:33.585 18 2 laps 0:08.794 2:03.383 2 43.766
29 611 Cociu, Mihail MDA FRM Honda 40:36.126 18 2 laps 0:02.541 2:05.159 3 43.145
30 262 Del Segato, Giacomo ITA FMI KTM 40:41.913 18 2 laps 0:05.787 2:04.589 5 43.343
31 339 Thacker, Michael USA LAMSF Kawasaki 41:15.054 16 4 laps 2 laps 2:09.009 2 41.858
32 550 Mitchell, Sean ZIM ZMSF Honda 31:50.236 13 7 laps 3 laps 2:03.041 1 43.888
33 128 Monticelli, Ivo ITA FMI Honda 24:24.859 10 10 laps 3 laps 2:00.699 2 44.739
34 152 Petrov, Petar BUL BMF Yamaha 18:08.356 8 12 laps 2 laps 1:58.964 3 45.392
35 77 Lupino, Alessandro ITA FMI Husqvarna 2:06.857 0 20 laps 8 laps 0:00.000 0 0
36 33 Lieber, Julien BEL MUL KTM 2:07.181 0 20 laps 0:00.324 0:00.000 0 0

Holeshot de Max Nagl et chute de Barragan et Xavier Boog au départ.. Frossard qui souffre des cotes suite à sa chute d’hier prend la tête dès le premier tour mais se fera passer par Cairoli à 15 min de la fin de la fin de la manche..

MX1 – Grand Prix Race 1 – Classification
Pos Nr Rider Nat. Fed. Bike Time laps Diff. First Diff. Prev. Bestlaptime in lap Speed

1 222 Cairoli, Antonio ITA FMI KTM 40:49.442 20 0:00.000 0:00.000 1:54.314 3 47.238
2 183 Frossard, Steven FRA FFM Yamaha 40:55.745 20 0:06.303 0:06.303 1:54.345 1 47.226
3 2 Nagl, Maximilian GER DMSB KTM 41:00.073 20 0:10.631 0:04.328 1:54.634 2 47.106
4 19 Philippaerts, David ITA FMI Yamaha 41:23.762 20 0:34.320 0:23.689 1:55.445 7 46.776
5 25 Desalle, Clement BEL FMB Suzuki 41:32.747 20 0:43.305 0:08.985 1:56.554 6 46.33
6 999 Goncalves, Rui POR FMP Honda 41:32.927 20 0:43.485 0:00.180 1:57.296 2 46.037
7 9 de Dycker, Ken BEL FMB Honda 41:46.637 20 0:57.195 0:13.710 1:54.769 3 47.051
8 11 Ramon, Steve BEL FMB Suzuki 41:49.140 20 0:59.698 0:02.503 1:57.376 1 46.006
9 6 Leok, Tanel EST EMF TM 41:51.764 20 1:02.322 0:02.624 1:57.640 10 45.903
10 777 Bobryshev, Evgeny RUS MFR Honda 42:12.829 20 1:23.387 0:21.065 1:56.716 5 46.266
11 14 de Reuver, Marc NED KNMV Yamaha 42:35.707 20 1:46.265 0:22.878 1:57.667 2 45.892
12 39 Guarneri, Davide ITA FMI Kawasaki 42:38.496 20 1:49.054 0:02.789 1:59.361 5 45.241
13 50 Barr, Martin GBR MCUI KTM 42:40.000 20 1:50.558 0:01.504 1:56.931 1 46.181
14 7 Barragan, Jonathan ESP RFME Kawasaki 42:46.541 20 1:57.099 0:06.541 1:58.700 16 45.493
15 10 Boissiere, Anthony FRA FFM Yamaha 42:50.975 20 2:01.533 0:04.434 1:59.341 7 45.248
16 22 Strijbos, Kevin BEL FMB Suzuki 40:54.142 19 1 lap 1 lap 1:58.137 4 45.71
17 121 Boog, Xavier FRA FFM Kawasaki 40:57.210 19 1 lap 0:03.068 1:59.214 4 45.297
18 21 Dougan, Jason GBR ACU Yamaha 41:08.903 19 1 lap 0:11.693 1:59.458 3 45.204
19 101 Townley, Benjamin NZL MNZ Kawasaki 41:12.224 19 1 lap 0:03.321 2:00.049 3 44.982
20 24 Simpson, Shaun GBR ACU Honda 41:13.043 19 1 lap 0:00.819 1:57.082 2 46.122
21 287 Schiffer, Marcus GER DMSB Suzuki 41:17.628 19 1 lap 0:04.585 2:00.094 6 44.965
22 52 Walkner, Matthias AUT OeAMTC KTM 41:18.746 19 1 lap 0:01.118 2:01.764 19 44.348
23 37 Krestinov, Gert EST EMF Kawasaki 41:21.635 19 1 lap 0:02.889 2:01.301 4 44.517
24 61 Brakke, Herjan NED KNMV Yamaha 41:29.106 19 1 lap 0:07.471 2:01.193 3 44.557
25 67 Tiainen, Santtu FIN SML Kawasaki 41:56.671 19 1 lap 0:27.565 2:03.770 8 43.629
26 115 Campano Jimenez, Carlos ESP RFME Yamaha 42:03.764 19 1 lap 0:07.093 2:03.198 7 43.832
27 717 Sandberg, Rickard SWE SVEMO Kawasaki 42:05.858 19 1 lap 0:02.094 2:02.676 3 44.018
28 95 Augusts, Justs LAT LAMSF Honda 42:22.234 19 1 lap 0:16.376 2:04.507 4 43.371
29 555 Irwin, Graeme GBR MCUI KTM 42:24.160 19 1 lap 0:01.926 2:03.481 9 43.731
30 74 Steinbergs, Ivo LAT LAMSF Kawasaki 42:27.713 19 1 lap 0:03.553 2:05.072 2 43.175
31 86 van Vijfeijken, Rob NED KNMV Kawasaki 42:43.064 19 1 lap 0:15.351 2:04.769 4 43.28
32 45 Leonce, Loic FRA FFM Aprilia 40:51.320 18 2 laps 1 lap 2:01.726 2 44.362
33 387 Martens, Yentel BEL MUL KTM 41:14.412 18 2 laps 0:23.092 2:01.171 2 44.565
34 26 Delince, Jeremy BEL FMB KTM 41:26.568 18 2 laps 0:12.156 2:04.303 4 43.442
35 91 Thuresson, Filip SWE SVEMO KTM 42:27.996 18 2 laps 1:01.428 2:04.075 3 43.522
36 78 Verhoeven, Bas NED KNMV Honda 34:06.736 15 5 laps 3 laps 1:59.679 2 45.121
37 49 Schmidinger, Günter AUT OeAMTC Honda 19:51.298 8 12 laps 7 laps 2:04.679 3 43.311
38 215 Lynggaard, Kasper DEN DMU Kawasaki 12:59.786 5 15 laps 3 laps 2:00.438 3 44.836

EMX2 – Race 2 – Classification
Pos Nr Rider Nat. Fed. Bike Time laps Diff. First Diff. Prev. Bestlaptime in lap Speed

1 51 Getteman, Jens BEL FMB Yamaha 30:37.435 14 0:00.000 0:00.000 2:00.010 2 44.996
2 81 Van Wezel, Michael NED KNMV KTM 30:44.567 14 0:07.132 0:07.132 2:01.653 6 44.389
3 300 Tonkov, Aleksandr RUS FMI Yamaha 30:52.158 14 0:14.723 0:07.591 2:02.020 7 44.255
4 151 Desprey, Maxime FRA FFM Yamaha 30:59.803 14 0:22.368 0:07.645 2:01.931 6 44.287
5 21 Fors, Kevin BEL FMB KTM 31:06.073 14 0:28.638 0:06.270 2:01.879 2 44.306
6 12 Heibye, Even NOR NMF KTM 31:12.757 14 0:35.322 0:06.684 2:02.113 7 44.221
7 336 Olsen, Stefan Kjer DEN DMU Yamaha 31:19.839 14 0:42.404 0:07.082 2:02.648 5 44.028
8 141 Cervellin, Andrea ITA FMI Husqvarna 31:22.427 14 0:44.992 0:02.588 2:02.900 6 43.938
9 64 Bengtsson, Filip SWE SVEMO KTM 31:25.944 14 0:48.509 0:03.517 2:03.636 5 43.677
10 262 Lonka, Lukasz POL PZM Honda 31:26.298 14 0:48.863 0:00.354 2:03.705 4 43.652
11 225 Lefrancois, Charles FRA FFM Honda 31:28.001 14 0:50.566 0:01.703 2:02.820 1 43.967
12 461 Febvre, Romain FRA FFM KTM 31:30.294 14 0:52.859 0:02.293 2:03.623 10 43.681
13 20 Irt, Jernej SLO AMZS Suzuki 31:40.642 14 1:03.207 0:10.348 2:04.304 2 43.442
14 46 Jönsson, Jesper SWE SVEMO Suzuki 31:43.850 14 1:06.415 0:03.208 2:05.032 8 43.189
15 228 Jorgensen, Rasmus DEN DMU Suzuki 31:47.024 14 1:09.589 0:03.174 2:04.992 12 43.203
16 192 Mercandino, Michael ITA FMI KTM 31:53.596 14 1:16.161 0:06.572 2:02.818 5 43.967
17 11 Bastemeijer, Donny NED KNMV Honda 31:56.226 14 1:18.791 0:02.630 2:04.585 4 43.344
18 17 Bertuzzo, Pierfilippo ITA FMI Yamaha 31:57.478 14 1:20.043 0:01.252 2:05.706 11 42.957
19 149 Ullrich, Dennis GER DMSB Honda 31:58.693 14 1:21.258 0:01.215 2:05.243 4 43.116
20 66 Tombs, Lewis GBR ACU Honda 32:13.304 14 1:35.869 0:14.611 2:06.933 8 42.542
21 37 Hjortmarker, Eddie SWE SVEMO Honda 32:14.458 14 1:37.023 0:01.154 2:06.010 6 42.854
22 707 Kappel, Robin FRA FFM KTM 32:27.627 14 1:50.192 0:13.169 2:04.883 3 43.24
23 172 Van Doninck, Brent BEL FMB KTM 32:30.018 14 1:52.583 0:02.391 2:04.181 3 43.485
24 221 Rätsep, Priit EST EMF Honda 32:42.563 14 2:05.128 0:12.545 2:05.065 3 43.178
25 193 Brackman, Wietse BEL FMB KTM 32:48.390 14 2:10.955 0:05.827 2:06.883 4 42.559
26 214 Zeni, Samuel ITA FMI Suzuki 31:21.984 13 1 lap 1 lap 2:03.091 4 43.87
27 171 Soper, Marcus-Lee GBR ACU Honda 31:38.190 13 1 lap 0:16.206 2:08.697 1 41.959
28 49 Battig, Alessandro ITA FMI KTM 32:18.549 13 1 lap 0:40.359 2:02.985 8 43.908
29 103 Vandueren, Kenny BEL FMB KTM 32:27.846 13 1 lap 0:09.297 2:04.455 2 43.389
30 211 Jaulin, Sulivan FRA FFM Kawasaki 25:52.314 11 3 laps 2 laps 2:06.664 2 42.632
31 250 Fura, Richard FRA FFM Yamaha 24:37.156 10 4 laps 1 lap 2:05.507 4 43.025
32 951 Aubin, Arnaud FRA FFM KTM 24:55.394 10 4 laps 0:18.238 2:03.106 8 43.865
33 122 Ferrandis, Dylan FRA FFM Kawasaki 17:28.391 7 7 laps 3 laps 2:04.241 3 43.464
34 89 Bogers, Brian NED KNMV KTM 18:08.748 7 7 laps 0:40.357 2:07.795 1 42.255
35 356 Reville, Anthony GBR ACU Honda 16:11.279 6 8 laps 1 lap 2:07.122 1 42.479
36 24 Leijtens, Eric NED KNMV Kawasaki 16:31.630 6 8 laps 0:20.351 2:06.471 1 42.698
37 140 Van Herpen, Sander NED KNMV Honda 13:04.263 5 9 laps 1 lap 2:05.425 3 43.054
38 14 Poppe, Jens BEL FMB Yamaha 11:35.543 4 10 laps 1 lap 2:04.665 1 43.316
39 107 Vandergugten, Olivier BEL FMB KTM 4:28.834 1 13 laps 3 laps 2:12.107 1 40.876

EMX2 – Overall Classification
Pos Nr Rider Nat. Fed. Bike Race 1 Race 2 Total

1 81 Van Wezel, Michael NED KNMV KTM 25 22 47
2 51 Getteman, Jens BEL FMB Yamaha 20 25 45
3 300 Tonkov, Aleksandr RUS FMI Yamaha 22 20 42
4 151 Desprey, Maxime FRA FFM Yamaha 11 18 29
5 12 Heibye, Even NOR NMF KTM 14 15 29
6 461 Febvre, Romain FRA FFM KTM 15 9 24
7 225 Lefrancois, Charles FRA FFM Honda 13 10 23
8 21 Fors, Kevin BEL FMB KTM 6 16 22
9 262 Lonka, Lukasz POL PZM Honda 10 11 21
10 192 Mercandino, Michael ITA FMI KTM 16 5 21
11 24 Leijtens, Eric NED KNMV Kawasaki 18 0 18
12 11 Bastemeijer, Donny NED KNMV Honda 12 4 16
13 336 Olsen, Stefan Kjer DEN DMU Yamaha 0 14 14
14 64 Bengtsson, Filip SWE SVEMO KTM 2 12 14
15 141 Cervellin, Andrea ITA FMI Husqvarna 0 13 13
16 707 Kappel, Robin FRA FFM KTM 9 0 9
17 20 Irt, Jernej SLO AMZS Suzuki 0 8 8
18 214 Zeni, Samuel ITA FMI Suzuki 8 0 8
19 46 Jönsson, Jesper SWE SVEMO Suzuki 0 7 7
20 149 Ullrich, Dennis GER DMSB Honda 5 2 7
21 140 Van Herpen, Sander NED KNMV Honda 7 0 7
22 228 Jorgensen, Rasmus DEN DMU Suzuki 0 6 6
23 17 Bertuzzo, Pierfilippo ITA FMI Yamaha 3 3 6
24 66 Tombs, Lewis GBR ACU Honda 4 1 5
25 89 Bogers, Brian NED KNMV KTM 3 0 3
26 221 Rätsep, Priit EST EMF Honda 1 0 1
27 37 Hjortmarker, Eddie SWE SVEMO Honda 0 0 0
28 172 Van Doninck, Brent BEL FMB KTM 0 0 0
29 193 Brackman, Wietse BEL FMB KTM 0 0 0
30 171 Soper, Marcus-Lee GBR ACU Honda 0 0 0
31 49 Battig, Alessandro ITA FMI KTM 0 0 0
32 103 Vandueren, Kenny BEL FMB KTM 0 0 0
33 211 Jaulin, Sulivan FRA FFM Kawasaki 0 0 0
34 250 Fura, Richard FRA FFM Yamaha 0 0 0
35 951 Aubin, Arnaud FRA FFM KTM 0 0 0
36 122 Ferrandis, Dylan FRA FFM Kawasaki 0 0 0
37 356 Reville, Anthony GBR ACU Honda 0 0 0
38 14 Poppe, Jens BEL FMB Yamaha 0 0 0
39 107 Vandergugten, Olivier BEL FMB KTM 0 0 0
40 32 Tureluren, Arne BEL FMB KTM 0 0 0

EMX2 – Championship Classification
Pos Nr Rider Nat. Total NED FRA POR ESP LAT BEL EUR

1 81 Van Wezel, M. NED 47 25-22 - - - - - - - - - - - -
2 51 Getteman, Jens BEL 45 20-25 - - - - - - - - - - - -
3 300 Tonkov, A. RUS 42 22-20 - - - - - - - - - - - -
4 151 Desprey, M. FRA 29 11-18 - - - - - - - - - - - -
5 12 Heibye, Even NOR 29 14-15 - - - - - - - - - - - -
6 461 Febvre, Romain FRA 24 15-9 - - - - - - - - - - - -
7 225 Lefrancois, C. FRA 23 13-10 - - - - - - - - - - - -
8 21 Fors, Kevin BEL 22 6-16 - - - - - - - - - - - -
9 192 Mercandino, M. ITA 21 16-5 - - - - - - - - - - - -
10 262 Lonka, Lukasz POL 21 10-11 - - - - - - - - - - - -
11 24 Leijtens, Eric NED 18 18-0 - - - - - - - - - - - -
12 11 Bastemeijer, D. NED 16 12-4 - - - - - - - - - - - -
13 336 Olsen, S. DEN 14 0-14 - - - - - - - - - - - -
14 64 Bengtsson, F. SWE 14 2-12 - - - - - - - - - - - -
15 141 Cervellin, A. ITA 13 0-13 - - - - - - - - - - - -
16 707 Kappel, Robin FRA 9 9-0 - - - - - - - - - - - -
17 214 Zeni, Samuel ITA 8 8-0 - - - - - - - - - - - -
18 20 Irt, Jernej SLO 8 0-8 - - - - - - - - - - - -
19 46 Jönsson, J. SWE 7 0-7 - - - - - - - - - - - -
20 140 Van Herpen, S. NED 7 7-0 - - - - - - - - - - - -
21 149 Ullrich, D. GER 7 5-2 - - - - - - - - - - - -
22 228 Jorgensen, R. DEN 6 0-6 - - - - - - - - - - - -
23 17 Bertuzzo, P. ITA 6 3-3 - - - - - - - - - - - -
24 66 Tombs, Lewis GBR 5 4-1 - - - - - - - - - - - -
25 89 Bogers, Brian NED 3 3-0 - - - - - - - - - - - -
26 221 Rätsep, Priit EST 1 1-0 - - - - - - - - - - - -

MX2 – Grand Prix Race 2 – Classification
Pos Nr Rider Nat. Fed. Bike Time laps Diff. First Diff. Prev. Bestlaptime in lap Speed

1 84 Herlings, Jeffrey NED KNMV KTM 41:04.993 20 0:00.000 0:00.000 1:50.831 3 48.723
2 94 Roczen, Ken GER DMSB KTM 41:16.003 20 0:11.010 0:11.010 1:53.484 4 47.584
3 100 Searle, Tommy GBR ACU Kawasaki 41:36.868 20 0:31.875 0:20.865 1:55.862 4 46.607
4 7 Tonus, Arnaud SUI FMS Yamaha 41:47.296 20 0:42.303 0:10.428 1:56.597 9 46.313
5 34 Roelants, Joel BEL FMB KTM 42:03.441 20 0:58.448 0:16.145 1:57.514 9 45.952
6 21 Paulin, Gautier FRA MCM Yamaha 42:14.321 20 1:09.328 0:10.880 1:57.282 1 46.043
7 151 Kullas, Harri FIN SML Yamaha 42:23.041 20 1:18.048 0:08.720 1:57.387 2 46.002
8 338 Osborne, Zachary USA ACU Yamaha 42:51.436 20 1:46.443 0:28.395 2:00.414 11 44.845
9 99 Anstie, Max GBR AMA Kawasaki 42:55.246 20 1:50.253 0:03.810 1:58.948 12 45.398
10 430 Charlier, Christophe FRA FFM Yamaha 43:05.624 20 2:00.631 0:10.378 1:55.304 1 46.833
11 152 Petrov, Petar BUL BMF Yamaha 41:06.055 19 1 lap 1 lap 2:00.606 3 44.774
12 249 Larsen, Nikolaj DEN DMU KTM 41:08.051 19 1 lap 0:01.996 1:59.589 6 45.155
13 25 Coldenhoff, Glenn NED KNMV Yamaha 41:13.025 19 1 lap 0:04.974 2:00.503 3 44.812
14 17 Butron Oliva, Antonio Jose ESP RFME KTM 41:28.369 19 1 lap 0:15.344 2:02.051 6 44.244
15 911 Tixier, Jordi FRA FFM KTM 41:58.172 19 1 lap 0:29.803 2:01.712 4 44.367
16 388 Söderberg, Ludvig FIN SML Kawasaki 42:12.527 19 1 lap 0:14.355 2:01.625 2 44.399
17 590 Triest, Nick BEL FMB KTM 42:34.691 19 1 lap 0:22.164 2:00.155 2 44.942
18 77 Lupino, Alessandro ITA FMI Husqvarna 42:41.041 19 1 lap 0:06.350 2:03.154 7 43.848
19 195 Justs, Roberts LAT LAMSF Honda 42:45.981 19 1 lap 0:04.940 2:04.580 2 43.346
20 102 Smitka, Petr CZE ACCR TM 43:01.566 19 1 lap 0:15.585 2:04.998 5 43.201
21 777 Zanoni, Swian BRA CBM Honda 43:07.780 19 1 lap 0:06.214 2:06.421 8 42.714
22 173 Guillod, Valentin SUI FMS KTM 43:20.756 19 1 lap 0:12.976 2:02.886 1 43.943
23 114 Booker, Jordan GBR ACU KTM 41:33.425 18 2 laps 1 lap 2:05.198 2 43.132
24 62 Klemen, Gercar SLO AMZS Yamaha 41:45.190 18 2 laps 0:11.765 2:03.958 1 43.563
25 550 Mitchell, Sean ZIM ZMSF Honda 42:18.002 18 2 laps 0:32.812 2:06.814 1 42.582
26 611 Cociu, Mihail MDA FRM Honda 42:18.571 18 2 laps 0:00.569 2:09.044 18 41.846
27 339 Thacker, Michael USA LAMSF Kawasaki 42:10.539 16 4 laps 2 laps 2:14.555 2 40.132
28 33 Lieber, Julien BEL MUL KTM 15:34.833 6 14 laps 10 laps 2:04.932 3 43.224
29 79 Oldekamp, Lars GER DMSB KTM 15:54.714 6 14 laps 0:19.881 2:05.087 2 43.17
30 55 Kras, Mike NED KNMV Suzuki 16:28.529 6 14 laps 0:33.815 2:02.854 1 43.955
31 262 Del Segato, Giacomo ITA FMI KTM 13:18.547 5 15 laps 1 lap 2:05.525 2 43.019
32 128 Monticelli, Ivo ITA FMI Honda 14:36.615 5 15 laps 1:18.068 2:05.823 1 42.917
33 131 Aubin, Nicolas FRA FFM KTM 11:07.809 4 16 laps 1 lap 2:07.522 3 42.346
34 117 Söderström, Tom SWE SVEMO Suzuki 8:30.664 3 17 laps 1 lap 2:06.220 1 42.782
35 824 Kouwenberg, Nick NED KNMV KTM 9:41.878 3 17 laps 1:11.214 2:08.113 1 42.15
36 76 Rauchenecker, Pascal AUT OeAMTC KTM 6:20.463 2 18 laps 1 lap 2:01.536 1 44.431
37 941 Meurs, Jeffrey NED KNMV KTM 4:20.012 1 19 laps 1 lap 2:07.654 1 42.302

MX2 – GP Classification
Pos Nr Rider Nat. Fed. Bike Race 1 Race 2 Total

1 84 Herlings, Jeffrey NED KNMV KTM 25 25 50
2 94 Roczen, Ken GER DMSB KTM 22 22 44
3 100 Searle, Tommy GBR ACU Kawasaki 20 20 40
4 7 Tonus, Arnaud SUI FMS Yamaha 18 18 36
5 21 Paulin, Gautier FRA MCM Yamaha 16 15 31
6 34 Roelants, Joel BEL FMB KTM 13 16 29
7 151 Kullas, Harri FIN SML Yamaha 14 14 28
8 338 Osborne, Zachary USA ACU Yamaha 15 13 28
9 99 Anstie, Max GBR AMA Kawasaki 11 12 23
10 249 Larsen, Nikolaj DEN DMU KTM 10 9 19
11 430 Charlier, Christophe FRA FFM Yamaha 7 11 18
12 25 Coldenhoff, Glenn NED KNMV Yamaha 9 8 17
13 17 Butron Oliva, Antonio Jose ESP RFME KTM 8 7 15
14 131 Aubin, Nicolas FRA FFM KTM 12 0 12
15 152 Petrov, Petar BUL BMF Yamaha 0 10 10
16 911 Tixier, Jordi FRA FFM KTM 3 6 9
17 388 Söderberg, Ludvig FIN SML Kawasaki 2 5 7
18 55 Kras, Mike NED KNMV Suzuki 6 0 6
19 79 Oldekamp, Lars GER DMSB KTM 5 0 5
20 590 Triest, Nick BEL FMB KTM 0 4 4
21 76 Rauchenecker, Pascal AUT OeAMTC KTM 4 0 4
22 77 Lupino, Alessandro ITA FMI Husqvarna 0 3 3
23 195 Justs, Roberts LAT LAMSF Honda 0 2 2
24 102 Smitka, Petr CZE ACCR TM 1 1 2
25 173 Guillod, Valentin SUI FMS KTM 1 0 1
26 777 Zanoni, Swian BRA CBM Honda 0 0 0
27 114 Booker, Jordan GBR ACU KTM 0 0 0
28 62 Klemen, Gercar SLO AMZS Yamaha 0 0 0
29 550 Mitchell, Sean ZIM ZMSF Honda 0 0 0
30 611 Cociu, Mihail MDA FRM Honda 0 0 0
31 339 Thacker, Michael USA LAMSF Kawasaki 0 0 0
32 33 Lieber, Julien BEL MUL KTM 0 0 0
33 262 Del Segato, Giacomo ITA FMI KTM 0 0 0
34 128 Monticelli, Ivo ITA FMI Honda 0 0 0
35 117 Söderström, Tom SWE SVEMO Suzuki 0 0 0
36 824 Kouwenberg, Nick NED KNMV KTM 0 0 0
37 941 Meurs, Jeffrey NED KNMV KTM 0 0 0

MX2 – World Championship Classification
Pos Nr Rider Nat. Total BUL NED USA BRA FRA POR ESP SWE GER LAT BEL CZE GBR EUR ITA

1 94 Roczen, Ken GER 94 25-25 22-22 - - - - - - - - - - - - - - - - - - - - - - - - - -
2 84 Herlings, J. NED 86 16-20 25-25 - - - - - - - - - - - - - - - - - - - - - - - - - -
3 100 Searle, Tommy GBR 84 22-22 20-20 - - - - - - - - - - - - - - - - - - - - - - - - - -
4 7 Tonus, Arnaud SUI 67 18-13 18-18 - - - - - - - - - - - - - - - - - - - - - - - - - -
5 21 Paulin, G. FRA 65 20-14 16-15 - - - - - - - - - - - - - - - - - - - - - - - - - -
6 338 Osborne, Z. USA 60 14-18 15-13 - - - - - - - - - - - - - - - - - - - - - - - - - -
7 99 Anstie, Max GBR 51 13-15 11-12 - - - - - - - - - - - - - - - - - - - - - - - - - -
8 34 Roelants, Joel BEL 48 10-9 13-16 - - - - - - - - - - - - - - - - - - - - - - - - - -
9 151 Kullas, Harri FIN 46 11-7 14-14 - - - - - - - - - - - - - - - - - - - - - - - - - -
10 131 Aubin, Nicolas FRA 36 12-12 12-0 - - - - - - - - - - - - - - - - - - - - - - - - - -
11 430 Charlier, C. FRA 36 7-11 7-11 - - - - - - - - - - - - - - - - - - - - - - - - - -
12 89 van Horebeek, J. BEL 31 15-16 - - - - - - - - - - - - - - - - - - - - - - - - - - - -
13 25 Coldenhoff, G. NED 31 6-8 9-8 - - - - - - - - - - - - - - - - - - - - - - - - - -
14 17 Butron Oliva, A. ESP 21 4-2 8-7 - - - - - - - - - - - - - - - - - - - - - - - - - -
15 911 Tixier, Jordi FRA 20 8-3 3-6 - - - - - - - - - - - - - - - - - - - - - - - - - -
16 249 Larsen, N. DEN 19 0-0 10-9 - - - - - - - - - - - - - - - - - - - - - - - - - -
17 91 Karro, Matiss LAT 15 9-6 - - - - - - - - - - - - - - - - - - - - - - - - - - - -
18 77 Lupino, A. ITA 14 1-10 0-3 - - - - - - - - - - - - - - - - - - - - - - - - - -
19 76 Rauchenecker, P. AUT 14 5-5 4-0 - - - - - - - - - - - - - - - - - - - - - - - - - -
20 152 Petrov, Petar BUL 13 3-0 0-10 - - - - - - - - - - - - - - - - - - - - - - - - - -
21 590 Triest, Nick BEL 8 0-4 0-4 - - - - - - - - - - - - - - - - - - - - - - - - - -
22 388 Söderberg, L. FIN 7 0-0 2-5 - - - - - - - - - - - - - - - - - - - - - - - - - -
23 55 Kras, Mike NED 6 - - 6-0 - - - - - - - - - - - - - - - - - - - - - - - - - -
24 79 Oldekamp, Lars GER 5 0-0 5-0 - - - - - - - - - - - - - - - - - - - - - - - - - -
25 195 Justs, Roberts LAT 2 0-0 0-2 - - - - - - - - - - - - - - - - - - - - - - - - - -
26 33 Lieber, Julien BEL 2 2-0 0-0 - - - - - - - - - - - - - - - - - - - - - - - - - -
27 173 Guillod, V. SUI 2 0-1 1-0 - - - - - - - - - - - - - - - - - - - - - - - - - -
28 102 Smitka, Petr CZE 2 0-0 1-1 - - - - - - - - - - - - - - - - - - - - - - - - - -

MX1 – Grand Prix Race 2 – Classification
Pos Nr Rider Nat. Fed. Bike Time laps Diff. First Diff. Prev. Bestlaptime in lap Speed

1 2 Nagl, Maximilian GER DMSB KTM 39:21.653 19 0:00.000 0:00.000 1:56.361 1 46.407
2 222 Cairoli, Antonio ITA FMI KTM 39:36.100 19 0:14.447 0:14.447 1:55.236 6 46.86
3 19 Philippaerts, David ITA FMI Yamaha 39:43.700 19 0:22.047 0:07.600 1:56.313 2 46.426
4 999 Goncalves, Rui POR FMP Honda 39:48.803 19 0:27.150 0:05.103 1:56.020 1 46.544
5 183 Frossard, Steven FRA FFM Yamaha 40:06.222 19 0:44.569 0:17.419 1:56.168 6 46.484
6 25 Desalle, Clement BEL FMB Suzuki 40:15.293 19 0:53.640 0:09.071 1:56.785 1 46.239
7 777 Bobryshev, Evgeny RUS MFR Honda 40:31.064 19 1:09.411 0:15.771 1:58.281 6 45.654
8 9 de Dycker, Ken BEL FMB Honda 40:36.903 19 1:15.250 0:05.839 1:57.391 2 46
9 6 Leok, Tanel EST EMF TM 40:43.131 19 1:21.478 0:06.228 1:59.740 5 45.098
10 7 Barragan, Jonathan ESP RFME Kawasaki 40:46.653 19 1:25.000 0:03.522 2:00.194 5 44.927
11 39 Guarneri, Davide ITA FMI Kawasaki 40:55.176 19 1:33.523 0:08.523 1:59.028 7 45.367
12 11 Ramon, Steve BEL FMB Suzuki 41:00.512 19 1:38.859 0:05.336 1:58.852 1 45.435
13 10 Boissiere, Anthony FRA FFM Yamaha 41:14.993 19 1:53.340 0:14.481 1:59.718 5 45.106
14 121 Boog, Xavier FRA FFM Kawasaki 39:22.529 18 1 lap 1 lap 2:01.383 3 44.487
15 37 Krestinov, Gert EST EMF Kawasaki 39:25.282 18 1 lap 0:02.753 1:59.149 3 45.321
16 52 Walkner, Matthias AUT OeAMTC KTM 39:29.687 18 1 lap 0:04.405 2:00.802 14 44.701
17 24 Simpson, Shaun GBR ACU Honda 39:34.498 18 1 lap 0:04.811 1:59.812 1 45.071
18 22 Strijbos, Kevin BEL FMB Suzuki 39:56.353 18 1 lap 0:21.855 2:02.385 3 44.123
19 21 Dougan, Jason GBR ACU Yamaha 39:57.787 18 1 lap 0:01.434 2:01.593 5 44.41
20 67 Tiainen, Santtu FIN SML Kawasaki 39:58.461 18 1 lap 0:00.674 2:04.147 4 43.497
21 61 Brakke, Herjan NED KNMV Yamaha 40:03.113 18 1 lap 0:04.652 2:03.378 7 43.768
22 287 Schiffer, Marcus GER DMSB Suzuki 40:49.890 18 1 lap 0:46.777 2:02.846 2 43.957
23 49 Schmidinger, Günter AUT OeAMTC Honda 40:57.155 18 1 lap 0:07.265 2:04.687 5 43.308
24 115 Campano Jimenez, Carlos ESP RFME Yamaha 41:09.579 18 1 lap 0:12.424 2:02.832 6 43.962
25 95 Augusts, Justs LAT LAMSF Honda 41:17.209 18 1 lap 0:07.630 2:04.624 7 43.33
26 555 Irwin, Graeme GBR MCUI KTM 41:18.425 18 1 lap 0:01.216 2:05.235 6 43.119
27 74 Steinbergs, Ivo LAT LAMSF Kawasaki 41:31.375 18 1 lap 0:12.950 2:05.777 5 42.933
28 26 Delince, Jeremy BEL FMB KTM 40:12.716 17 2 laps 1 lap 2:08.110 3 42.151
29 717 Sandberg, Rickard SWE SVEMO Kawasaki 31:24.695 13 6 laps 4 laps 2:03.904 3 43.582
30 45 Leonce, Loic FRA FFM Aprilia 21:48.061 9 10 laps 4 laps 2:05.053 3 43.182
31 91 Thuresson, Filip SWE SVEMO KTM 20:15.468 8 11 laps 1 lap 2:03.125 3 43.858
32 78 Verhoeven, Bas NED KNMV Honda 15:30.444 6 13 laps 2 laps 2:06.210 3 42.786
33 50 Barr, Martin GBR MCUI KTM 12:46.433 5 14 laps 1 lap 2:02.492 1 44.085
34 387 Martens, Yentel BEL MUL KTM 13:16.733 5 14 laps 0:30.300 2:05.601 3 42.993
35 14 de Reuver, Marc NED KNMV Yamaha 7:42.849 2 17 laps 3 laps 1:58.009 1 45.759
36 215 Lynggaard, Kasper DEN DMU Kawasaki 4:11.626 1 18 laps 1 lap 2:06.078 1 42.831

MX1 – GP Classification
Pos Nr Rider Nat. Fed. Bike Race 1 Race 2 Tota
l
1 222 Cairoli, Antonio ITA FMI KTM 25 22 47
2 2 Nagl, Maximilian GER DMSB KTM 20 25 45
3 19 Philippaerts, David ITA FMI Yamaha 18 20 38
4 183 Frossard, Steven FRA FFM Yamaha 22 16 38
5 999 Goncalves, Rui POR FMP Honda 15 18 33
6 25 Desalle, Clement BEL FMB Suzuki 16 15 31
7 9 de Dycker, Ken BEL FMB Honda 14 13 27
8 777 Bobryshev, Evgeny RUS MFR Honda 11 14 25
9 6 Leok, Tanel EST EMF TM 12 12 24
10 11 Ramon, Steve BEL FMB Suzuki 13 9 22
11 39 Guarneri, Davide ITA FMI Kawasaki 9 10 19
12 7 Barragan, Jonathan ESP RFME Kawasaki 7 11 18
13 10 Boissiere, Anthony FRA FFM Yamaha 6 8 14
14 121 Boog, Xavier FRA FFM Kawasaki 4 7 11
15 14 de Reuver, Marc NED KNMV Yamaha 10 0 10
16 22 Strijbos, Kevin BEL FMB Suzuki 5 3 8
17 50 Barr, Martin GBR MCUI KTM 8 0 8
18 37 Krestinov, Gert EST EMF Kawasaki 0 6 6
19 52 Walkner, Matthias AUT OeAMTC KTM 0 5 5
20 24 Simpson, Shaun GBR ACU Honda 1 4 5
21 21 Dougan, Jason GBR ACU Yamaha 3 2 5
22 101 Townley, Benjamin NZL MNZ Kawasaki 2 0 2
23 67 Tiainen, Santtu FIN SML Kawasaki 0 1 1
24 61 Brakke, Herjan NED KNMV Yamaha 0 0 0
25 287 Schiffer, Marcus GER DMSB Suzuki 0 0 0
26 49 Schmidinger, Günter AUT OeAMTC Honda 0 0 0
27 115 Campano Jimenez, Carlos ESP RFME Yamaha 0 0 0
28 95 Augusts, Justs LAT LAMSF Honda 0 0 0
29 555 Irwin, Graeme GBR MCUI KTM 0 0 0
30 74 Steinbergs, Ivo LAT LAMSF Kawasaki 0 0 0
31 26 Delince, Jeremy BEL FMB KTM 0 0 0
32 717 Sandberg, Rickard SWE SVEMO Kawasaki 0 0 0
33 45 Leonce, Loic FRA FFM Aprilia 0 0 0
34 91 Thuresson, Filip SWE SVEMO KTM 0 0 0
35 78 Verhoeven, Bas NED KNMV Honda 0 0 0
36 387 Martens, Yentel BEL MUL KTM 0 0 0
37 215 Lynggaard, Kasper DEN DMU Kawasaki 0 0 0
38 86 van Vijfeijken, Rob NED KNMV Kawasaki 0 0 0

MX1 – World Championship Classification
Pos Nr Rider Nat. Total BUL NED USA BRA FRA POR ESP SWE GER LAT BEL CZE GBR EUR ITA

1 183 Frossard, S. FRA 85 25-22 22-16 - - - - - - - - - - - - - - - - - - - - - - - - - -
2 2 Nagl, M. GER 80 20-15 20-25 - - - - - - - - - - - - - - - - - - - - - - - - - -
3 25 Desalle, C. BEL 78 22-25 16-15 - - - - - - - - - - - - - - - - - - - - - - - - - -
4 222 Cairoli, A. ITA 72 14-11 25-22 - - - - - - - - - - - - - - - - - - - - - - - - - -
5 19 Philippaerts, D. ITA 63 18-7 18-20 - - - - - - - - - - - - - - - - - - - - - - - - - -
6 999 Goncalves, Rui POR 62 13-16 15-18 - - - - - - - - - - - - - - - - - - - - - - - - - -
7 7 Barragan, J. ESP 53 15-20 7-11 - - - - - - - - - - - - - - - - - - - - - - - - - -
8 777 Bobryshev, E. RUS 52 9-18 11-14 - - - - - - - - - - - - - - - - - - - - - - - - - -
9 39 Guarneri, D. ITA 45 16-10 9-10 - - - - - - - - - - - - - - - - - - - - - - - - - -
10 11 Ramon, Steve BEL 42 11-9 13-9 - - - - - - - - - - - - - - - - - - - - - - - - - -
11 6 Leok, Tanel EST 36 0-12 12-12 - - - - - - - - - - - - - - - - - - - - - - - - - -
12 22 Strijbos, K. BEL 34 12-14 5-3 - - - - - - - - - - - - - - - - - - - - - - - - - -
13 121 Boog, Xavier FRA 34 10-13 4-7 - - - - - - - - - - - - - - - - - - - - - - - - - -
14 9 de Dycker, Ken BEL 31 0-4 14-13 - - - - - - - - - - - - - - - - - - - - - - - - - -
15 10 Boissiere, A. FRA 28 6-8 6-8 - - - - - - - - - - - - - - - - - - - - - - - - - -
16 24 Simpson, Shaun GBR 18 8-5 1-4 - - - - - - - - - - - - - - - - - - - - - - - - - -
17 14 de Reuver, M. NED 13 3-0 10-0 - - - - - - - - - - - - - - - - - - - - - - - - - -
18 21 Dougan, Jason GBR 12 7-0 3-2 - - - - - - - - - - - - - - - - - - - - - - - - - -
19 115 Campano Jimenez, C. ESP 11 5-6 0-0 - - - - - - - - - - - - - - - - - - - - - - - - - -
20 50 Barr, Martin GBR 8 - - 8-0 - - - - - - - - - - - - - - - - - - - - - - - - - -
21 37 Krestinov, G. EST 6 - - 0-6 - - - - - - - - - - - - - - - - - - - - - - - - - -
22 52 Walkner, M. AUT 6 0-1 0-5 - - - - - - - - - - - - - - - - - - - - - - - - - -
23 45 Leonce, Loic FRA 6 4-2 0-0 - - - - - - - - - - - - - - - - - - - - - - - - - -
24 49 Schmidinger, G. AUT 4 1-3 0-0 - - - - - - - - - - - - - - - - - - - - - - - - - -
25 387 Martens, Y. BEL 2 2-0 0-0 - - - - - - - - - - - - - - - - - - - - - - - - - -
26 101 Townley, B. NZL 2 - - 2-0 - - - - - - - - - - - - - - - - - - - - - - - - - -
27 67 Tiainen, S. FIN 1 - - 0-1 - - - - - - - - - - - - - - - - - - - - - - - - -

A voir aussi :

Le commentaires sont fermés.